createdAt,value
2023-04-17T05:03:07.230Z,22.69
2023-04-17T05:04:08.152Z,22.72
2023-04-17T05:05:08.088Z,22.69
2023-04-17T05:06:08.006Z,22.69
2023-04-17T05:07:08.026Z,22.69
2023-04-17T05:08:07.087Z,22.67
2023-04-17T05:09:08.113Z,22.68
2023-04-17T05:10:07.140Z,22.69
2023-04-17T05:11:07.130Z,22.74
2023-04-17T05:12:07.142Z,22.75
2023-04-17T05:13:08.189Z,22.74
2023-04-17T05:14:08.248Z,22.74
2023-04-17T05:15:07.328Z,22.80
2023-04-17T05:16:08.426Z,22.80
2023-04-17T05:17:08.443Z,22.79
2023-04-17T05:18:07.454Z,22.79
2023-04-17T05:19:07.536Z,22.79
2023-04-17T05:20:08.560Z,22.76
2023-04-17T05:21:07.578Z,22.80
2023-04-17T05:22:08.628Z,22.84
2023-04-17T05:23:07.678Z,22.84
2023-04-17T05:24:08.713Z,22.89
2023-04-17T05:25:08.744Z,22.85
2023-04-17T05:26:08.763Z,22.82
2023-04-17T05:27:08.797Z,22.85
2023-04-17T05:28:08.837Z,22.85
2023-04-17T05:29:08.975Z,22.84
2023-04-17T05:30:07.915Z,22.88
2023-04-17T05:31:07.991Z,22.88
2023-04-17T05:32:09.063Z,22.91
2023-04-17T05:33:08.058Z,22.91
2023-04-17T05:34:09.062Z,22.89
2023-04-17T05:35:09.083Z,22.94
2023-04-17T05:36:09.106Z,22.91
2023-04-17T05:37:08.128Z,22.91
2023-04-17T05:38:08.193Z,22.92
2023-04-17T05:39:08.190Z,22.92
2023-04-17T05:40:08.198Z,22.91
2023-04-17T05:41:09.244Z,22.94
2023-04-17T05:42:08.283Z,22.91
2023-04-17T05:43:08.300Z,22.91
2023-04-17T05:44:08.351Z,22.96
2023-04-17T05:45:08.366Z,22.94
2023-04-17T05:46:08.421Z,22.89
2023-04-17T05:47:09.430Z,22.91
2023-04-17T05:48:09.431Z,22.89
2023-04-17T05:49:08.471Z,22.94
2023-04-17T05:50:08.509Z,22.96
2023-04-17T05:51:08.612Z,22.96
2023-04-17T05:52:08.558Z,22.94
2023-04-17T05:53:08.592Z,22.94
2023-04-17T05:54:09.598Z,22.92
2023-04-17T05:55:09.625Z,22.98
2023-04-17T05:56:09.725Z,23.01
2023-04-17T05:57:09.678Z,22.99
2023-04-17T05:58:23.026Z,22.99
2023-04-17T05:59:09.818Z,22.96
2023-04-17T06:00:09.708Z,23.01
2023-04-17T06:01:09.744Z,23.01
2023-04-17T06:02:09.791Z,23.07
2023-04-17T06:03:09.018Z,23.20
2023-04-17T06:04:09.946Z,23.16
2023-04-17T06:05:08.741Z,23.20
2023-04-17T06:06:09.656Z,23.26
2023-04-17T06:07:09.656Z,23.30
2023-04-17T06:08:09.622Z,23.29
2023-04-17T06:09:08.730Z,23.31
2023-04-17T06:10:09.619Z,23.36
2023-04-17T06:11:09.616Z,23.39
2023-04-17T06:12:09.593Z,23.34
2023-04-17T06:13:09.591Z,23.33
2023-04-17T06:14:09.599Z,23.41
2023-04-17T06:15:09.032Z,23.41
2023-04-17T06:16:09.584Z,23.44
2023-04-17T06:17:09.609Z,23.47
2023-04-17T06:18:08.572Z,23.47
2023-04-17T06:19:08.550Z,23.46
2023-04-17T06:20:08.542Z,23.50
2023-04-17T06:21:08.548Z,23.51
2023-04-17T06:22:09.517Z,23.54
2023-04-17T06:23:08.546Z,23.56
2023-04-17T06:24:09.527Z,23.53
2023-04-17T06:25:09.494Z,23.58
2023-04-17T06:26:08.513Z,23.58
2023-04-17T06:27:09.495Z,23.60
2023-04-17T06:28:09.501Z,23.60
2023-04-17T06:29:09.616Z,23.60
2023-04-17T06:30:09.467Z,23.61
2023-04-17T06:31:09.551Z,23.62
2023-04-17T06:32:09.459Z,23.65
2023-04-17T06:33:09.433Z,23.65
2023-04-17T06:34:09.448Z,23.62
2023-04-17T06:35:08.438Z,23.64
2023-04-17T06:36:08.428Z,23.67
2023-04-17T06:37:09.420Z,23.68
2023-04-17T06:38:09.410Z,23.69
2023-04-17T06:39:08.453Z,23.72
2023-04-17T06:40:08.512Z,23.69
2023-04-17T06:41:09.528Z,23.71
2023-04-17T06:42:09.565Z,23.74
2023-04-17T06:43:09.602Z,23.78
2023-04-17T06:44:09.682Z,23.76
2023-04-17T06:45:09.734Z,23.82
2023-04-17T06:46:09.853Z,23.79
2023-04-17T06:47:09.843Z,23.84
2023-04-17T06:48:09.900Z,23.84
2023-04-17T06:49:10.317Z,23.86
2023-04-17T06:50:09.973Z,23.84
2023-04-17T06:51:09.035Z,23.88
2023-04-17T06:52:09.095Z,23.84
2023-04-17T06:53:10.134Z,23.89
2023-04-17T06:54:09.178Z,23.85
2023-04-17T06:55:10.437Z,23.88
2023-04-17T06:56:10.752Z,23.86
2023-04-17T06:57:10.312Z,23.84
2023-04-17T06:58:10.365Z,23.85
2023-04-17T06:59:10.706Z,23.81
2023-04-17T07:00:10.457Z,23.84
2023-04-17T07:01:09.488Z,23.85
2023-04-17T07:02:10.716Z,23.84
2023-04-17T07:03:10.711Z,23.84
2023-04-17T07:04:10.831Z,23.88
2023-04-17T07:05:09.739Z,23.88
2023-04-17T07:06:09.835Z,23.86
2023-04-17T07:07:09.834Z,23.84
2023-04-17T07:08:10.911Z,23.85
2023-04-17T07:09:11.128Z,23.84
2023-04-17T07:10:10.030Z,23.86
2023-04-17T07:11:10.123Z,23.89
2023-04-17T07:12:10.149Z,23.85
2023-04-17T07:13:11.209Z,23.84
2023-04-17T07:14:12.890Z,23.88
2023-04-17T07:15:11.296Z,23.85
2023-04-17T07:16:11.277Z,23.86
2023-04-17T07:17:11.253Z,23.89
2023-04-17T07:18:10.492Z,23.88
2023-04-17T07:19:10.546Z,23.89
2023-04-17T07:20:11.262Z,23.89
2023-04-17T07:21:11.220Z,23.96
2023-04-17T07:22:11.228Z,23.98
2023-04-17T07:23:11.210Z,23.93
2023-04-17T07:24:11.191Z,23.92
2023-04-17T07:25:11.179Z,23.89
2023-04-17T07:26:11.204Z,23.95
2023-04-17T07:27:11.380Z,23.92
2023-04-17T07:28:10.165Z,23.95
2023-04-17T07:29:11.444Z,23.89
2023-04-17T07:30:10.161Z,23.89
2023-04-17T07:31:11.177Z,24.02
2023-04-17T07:32:11.124Z,23.99
2023-04-17T07:33:10.204Z,23.96
2023-04-17T07:34:10.112Z,23.98
2023-04-17T07:35:10.112Z,23.98
2023-04-17T07:36:11.122Z,24.02
2023-04-17T07:37:10.102Z,23.98
2023-04-17T07:38:11.102Z,23.95
2023-04-17T07:39:11.332Z,23.93
2023-04-17T07:40:11.215Z,23.91
2023-04-17T07:41:11.271Z,23.93
2023-04-17T07:42:11.326Z,23.96
2023-04-17T07:43:11.401Z,23.96
2023-04-17T07:44:10.397Z,23.98
2023-04-17T07:45:10.435Z,24.01
2023-04-17T07:46:11.465Z,23.99
2023-04-17T07:47:11.636Z,23.93
2023-04-17T07:48:11.657Z,23.99
2023-04-17T07:49:12.496Z,23.92
2023-04-17T07:50:11.679Z,23.85
2023-04-17T07:51:11.761Z,23.79
2023-04-17T07:52:10.781Z,23.76
2023-04-17T07:53:11.810Z,23.71
2023-04-17T07:54:11.855Z,23.65
2023-04-17T07:55:11.935Z,23.65
2023-04-17T07:56:12.814Z,23.61
2023-04-17T07:57:12.003Z,23.58
2023-04-17T07:58:11.053Z,23.57
2023-04-17T07:59:12.271Z,23.54
2023-04-17T08:00:12.178Z,23.50
2023-04-17T08:01:12.260Z,23.48
2023-04-17T08:02:12.465Z,23.48
2023-04-17T08:03:12.499Z,23.41
2023-04-17T08:04:12.628Z,23.44
2023-04-17T08:05:12.433Z,23.40
2023-04-17T08:06:12.454Z,23.37
2023-04-17T08:07:12.484Z,23.40
2023-04-17T08:08:11.503Z,23.36
2023-04-17T08:09:11.744Z,23.33
2023-04-17T08:10:11.537Z,23.37
2023-04-17T08:11:11.771Z,23.39
2023-04-17T08:12:12.608Z,23.36
2023-04-17T08:13:12.594Z,23.33
2023-04-17T08:14:12.611Z,23.30
2023-04-17T08:15:11.621Z,23.33
2023-04-17T08:16:12.744Z,23.31
2023-04-17T08:17:12.670Z,23.31
2023-04-17T08:18:11.634Z,23.31
2023-04-17T08:19:11.805Z,23.33
2023-04-17T08:20:11.648Z,23.30
2023-04-17T08:21:12.773Z,23.31
2023-04-17T08:22:11.590Z,23.29
2023-04-17T08:23:12.584Z,23.31
2023-04-17T08:24:12.578Z,23.29
2023-04-17T08:25:12.652Z,23.33
2023-04-17T08:26:12.574Z,23.30
2023-04-17T08:27:12.562Z,23.31
2023-04-17T08:28:12.546Z,23.31
2023-04-17T08:29:11.984Z,23.30
2023-04-17T08:30:14.337Z,23.30
2023-04-17T08:31:11.728Z,23.30
2023-04-17T08:32:14.834Z,23.29
2023-04-17T08:33:11.517Z,23.30
2023-04-17T08:34:15.061Z,23.27
2023-04-17T08:35:11.521Z,23.31
2023-04-17T08:36:12.502Z,23.31
2023-04-17T08:37:12.486Z,23.33
2023-04-17T08:38:11.491Z,23.30
2023-04-17T08:39:11.761Z,23.27
2023-04-17T08:40:12.595Z,23.26
2023-04-17T08:41:11.469Z,23.24
2023-04-17T08:42:15.355Z,23.29
2023-04-17T08:43:12.451Z,23.29
2023-04-17T08:44:11.436Z,23.34
2023-04-17T08:45:11.437Z,23.31
2023-04-17T08:46:11.477Z,23.34
2023-04-17T08:47:12.445Z,23.39
2023-04-17T08:48:11.398Z,23.34
2023-04-17T08:49:12.676Z,23.34
2023-04-17T08:50:12.389Z,23.43
2023-04-17T08:51:11.405Z,23.37
2023-04-17T08:52:11.422Z,23.40
2023-04-17T08:53:11.367Z,23.39
2023-04-17T08:54:12.359Z,23.41
2023-04-17T08:55:12.360Z,23.40
2023-04-17T08:56:12.369Z,23.43
2023-04-17T08:57:12.360Z,23.36
2023-04-17T08:58:11.332Z,23.43
2023-04-17T08:59:11.652Z,23.41
2023-04-17T09:00:12.356Z,23.36
2023-04-17T09:01:12.364Z,23.36
2023-04-17T09:02:12.474Z,23.36
2023-04-17T09:03:12.607Z,23.39
2023-04-17T09:04:12.465Z,23.33
2023-04-17T09:05:12.283Z,23.36
2023-04-17T09:06:12.269Z,23.34
2023-04-17T09:07:11.265Z,23.30
2023-04-17T09:08:12.275Z,23.33
2023-04-17T09:09:12.532Z,23.31
2023-04-17T09:10:11.236Z,23.30
2023-04-17T09:11:12.242Z,23.31
2023-04-17T09:12:11.256Z,23.33
2023-04-17T09:13:12.241Z,23.30
2023-04-17T09:14:11.210Z,23.33
2023-04-17T09:15:12.196Z,23.34
2023-04-17T09:16:12.230Z,23.31
2023-04-17T09:17:11.186Z,23.30
2023-04-17T09:18:12.310Z,23.27
2023-04-17T09:19:12.429Z,23.29
2023-04-17T09:20:12.224Z,23.30
2023-04-17T09:21:12.163Z,23.31
2023-04-17T09:22:12.164Z,23.31
2023-04-17T09:23:11.154Z,23.37
2023-04-17T09:24:12.162Z,23.33
2023-04-17T09:25:11.186Z,23.33
2023-04-17T09:26:12.235Z,23.34
2023-04-17T09:27:11.186Z,23.37
2023-04-17T09:28:12.207Z,23.33
2023-04-17T09:29:12.769Z,23.37
2023-04-17T09:30:11.224Z,23.41
2023-04-17T09:31:12.496Z,23.37
2023-04-17T09:32:12.267Z,23.34
2023-04-17T09:33:12.292Z,23.39
2023-04-17T09:34:12.334Z,23.34
2023-04-17T09:35:12.529Z,23.34
2023-04-17T09:36:12.347Z,23.39
2023-04-17T09:37:11.358Z,23.43
2023-04-17T09:38:11.352Z,23.40
2023-04-17T09:39:12.632Z,23.37
2023-04-17T09:40:11.411Z,23.37
2023-04-17T09:41:11.434Z,23.40
2023-04-17T09:42:11.462Z,23.40
2023-04-17T09:43:12.499Z,23.40
2023-04-17T09:44:12.813Z,23.37
2023-04-17T09:45:12.600Z,23.41
2023-04-17T09:46:11.642Z,23.43
2023-04-17T09:47:12.630Z,23.43
2023-04-17T09:48:12.704Z,23.46
2023-04-17T09:49:12.685Z,23.41
2023-04-17T09:50:11.731Z,23.48
2023-04-17T09:51:12.858Z,23.43
2023-04-17T09:52:12.790Z,23.40
2023-04-17T09:53:12.800Z,23.43
2023-04-17T09:54:13.219Z,23.43
2023-04-17T09:55:11.864Z,23.44
2023-04-17T09:56:12.896Z,23.41
2023-04-17T09:57:12.970Z,23.47
2023-04-17T09:58:12.966Z,23.41
2023-04-17T09:59:12.986Z,23.43
2023-04-17T10:00:12.023Z,23.46
2023-04-17T10:01:13.097Z,23.44
2023-04-17T10:02:13.185Z,23.46
2023-04-17T10:03:13.318Z,23.50
2023-04-17T10:04:13.792Z,23.46
2023-04-17T10:05:12.280Z,23.48
2023-04-17T10:06:12.364Z,23.48
2023-04-17T10:07:12.457Z,23.44
2023-04-17T10:08:13.444Z,23.46
2023-04-17T10:09:13.504Z,23.51
2023-04-17T10:10:13.569Z,23.51
2023-04-17T10:11:12.710Z,23.54
2023-04-17T10:12:13.660Z,23.51
2023-04-17T10:13:13.704Z,23.48
2023-04-17T10:14:14.004Z,23.54
2023-04-17T10:15:13.776Z,23.54
2023-04-17T10:16:12.867Z,23.54
2023-04-17T10:17:12.875Z,23.54
2023-04-17T10:18:13.924Z,23.62
2023-04-17T10:19:12.964Z,23.58
2023-04-17T10:20:14.007Z,23.60
2023-04-17T10:21:13.079Z,23.64
2023-04-17T10:22:14.112Z,23.65
2023-04-17T10:23:13.274Z,23.68
2023-04-17T10:24:14.240Z,23.67
2023-04-17T10:25:14.285Z,23.67
2023-04-17T10:26:14.332Z,23.67
2023-04-17T10:27:13.380Z,23.61
2023-04-17T10:28:14.424Z,23.61
2023-04-17T10:29:14.487Z,23.62
2023-04-17T10:30:14.560Z,23.64
2023-04-17T10:31:14.644Z,23.67
2023-04-17T10:32:14.757Z,23.68
2023-04-17T10:33:13.751Z,23.68
2023-04-17T10:34:14.760Z,23.67
2023-04-17T10:35:14.800Z,23.68
2023-04-17T10:36:14.895Z,23.68
2023-04-17T10:37:14.942Z,23.68
2023-04-17T10:38:15.020Z,23.64
2023-04-17T10:39:14.455Z,23.64
2023-04-17T10:40:15.097Z,23.65
2023-04-17T10:41:14.365Z,23.67
2023-04-17T10:42:15.219Z,23.68
2023-04-17T10:43:15.299Z,23.69
2023-04-17T10:44:15.345Z,23.69
2023-04-17T10:45:15.426Z,23.65
2023-04-17T10:46:14.513Z,23.65
2023-04-17T10:47:15.605Z,23.72
2023-04-17T10:48:15.652Z,23.68
2023-04-17T10:49:14.865Z,23.67
2023-04-17T10:50:14.734Z,23.64
2023-04-17T10:51:15.754Z,23.68
2023-04-17T10:52:14.794Z,23.72
2023-04-17T10:53:15.877Z,23.65
2023-04-17T10:54:16.065Z,23.67
2023-04-17T10:55:15.954Z,23.69
2023-04-17T10:56:15.987Z,23.68
2023-04-17T10:57:16.046Z,23.68
2023-04-17T10:58:16.086Z,23.68
2023-04-17T10:59:15.506Z,23.65
2023-04-17T11:00:16.185Z,23.67
2023-04-17T11:01:16.297Z,23.67
2023-04-17T11:02:15.312Z,23.67
2023-04-17T11:03:16.432Z,23.65
2023-04-17T11:04:15.401Z,23.65
2023-04-17T11:05:16.394Z,23.69
2023-04-17T11:06:16.476Z,23.69
2023-04-17T11:07:15.509Z,23.69
2023-04-17T11:08:16.558Z,23.72
2023-04-17T11:09:17.040Z,23.72
2023-04-17T11:10:15.766Z,23.67
2023-04-17T11:11:18.527Z,23.69
2023-04-17T11:12:16.707Z,23.71
2023-04-17T11:13:15.718Z,23.69
2023-04-17T11:14:15.709Z,23.74
2023-04-17T11:15:15.683Z,23.75
2023-04-17T11:16:15.755Z,23.75
2023-04-17T11:17:16.703Z,23.72
2023-04-17T11:18:15.663Z,23.74
2023-04-17T11:19:15.655Z,23.74
2023-04-17T11:20:16.655Z,23.69
2023-04-17T11:21:16.636Z,23.72
2023-04-17T11:22:16.637Z,23.72
2023-04-17T11:23:15.626Z,23.72
2023-04-17T11:24:15.690Z,23.69
2023-04-17T11:25:15.612Z,23.71
2023-04-17T11:26:16.672Z,23.69
2023-04-17T11:27:16.602Z,23.65
2023-04-17T11:28:16.596Z,23.65
2023-04-17T11:29:16.712Z,23.68
2023-04-17T11:30:15.572Z,23.62
2023-04-17T11:31:18.500Z,23.62
2023-04-17T11:32:16.841Z,23.62
2023-04-17T11:33:16.555Z,23.61
2023-04-17T11:34:15.597Z,23.61
2023-04-17T11:35:15.531Z,23.61
2023-04-17T11:36:16.535Z,23.64
2023-04-17T11:37:16.844Z,23.65
2023-04-17T11:38:16.520Z,23.64
2023-04-17T11:39:16.507Z,23.62
2023-04-17T11:40:16.493Z,23.62
2023-04-17T11:41:16.488Z,23.62
2023-04-17T11:42:16.522Z,23.57
2023-04-17T11:43:16.489Z,23.60
2023-04-17T11:44:16.480Z,23.60
2023-04-17T11:45:16.467Z,23.62
2023-04-17T11:46:16.513Z,23.57
2023-04-17T11:47:15.465Z,23.57
2023-04-17T11:48:15.437Z,23.56
2023-04-17T11:49:15.427Z,23.64
2023-04-17T11:50:16.425Z,23.58
2023-04-17T11:51:16.418Z,23.56
2023-04-17T11:52:17.668Z,23.57
2023-04-17T11:53:15.580Z,23.60
2023-04-17T11:54:16.606Z,23.57
2023-04-17T11:55:16.640Z,23.54
2023-04-17T11:56:16.736Z,23.58
2023-04-17T11:57:16.768Z,23.54
2023-04-17T11:58:15.782Z,23.57
2023-04-17T11:59:16.795Z,23.56
2023-04-17T12:00:16.868Z,23.53
2023-04-17T12:01:16.963Z,23.57
2023-04-17T12:02:17.131Z,23.53
2023-04-17T12:03:17.321Z,23.54
2023-04-17T12:04:17.572Z,23.56
2023-04-17T12:05:17.269Z,23.53
2023-04-17T12:06:17.183Z,23.54
2023-04-17T12:07:16.232Z,23.57
2023-04-17T12:08:17.283Z,23.53
2023-04-17T12:09:17.325Z,23.54
2023-04-17T12:10:17.396Z,23.53
2023-04-17T12:11:19.454Z,23.50
2023-04-17T12:12:17.455Z,23.51
2023-04-17T12:13:17.430Z,23.48
2023-04-17T12:14:17.444Z,23.53
2023-04-17T12:15:16.413Z,23.47
2023-04-17T12:16:17.414Z,23.48
2023-04-17T12:17:17.410Z,23.48
2023-04-17T12:18:17.380Z,23.46
2023-04-17T12:19:17.385Z,23.47
2023-04-17T12:20:17.366Z,23.44
2023-04-17T12:21:16.373Z,23.44
2023-04-17T12:22:16.367Z,23.46
2023-04-17T12:23:17.347Z,23.43
2023-04-17T12:24:17.340Z,23.47
2023-04-17T12:25:16.339Z,23.44
2023-04-17T12:26:16.350Z,23.41
2023-04-17T12:27:17.378Z,23.41
2023-04-17T12:28:17.325Z,23.40
2023-04-17T12:29:17.802Z,23.39
2023-04-17T12:30:17.330Z,23.39
2023-04-17T12:31:17.309Z,23.37
2023-04-17T12:32:16.308Z,23.41
2023-04-17T12:33:17.290Z,23.46
2023-04-17T12:34:17.295Z,23.50
2023-04-17T12:35:17.297Z,23.50
2023-04-17T12:36:17.370Z,23.53
2023-04-17T12:37:17.415Z,23.54
2023-04-17T12:38:16.465Z,23.54
2023-04-17T12:39:17.528Z,23.58
2023-04-17T12:40:16.558Z,23.65
2023-04-17T12:41:17.586Z,23.68
2023-04-17T12:42:17.721Z,23.65
2023-04-17T12:43:16.693Z,23.69
2023-04-17T12:44:16.745Z,23.72
2023-04-17T12:45:16.792Z,23.76
2023-04-17T12:46:17.889Z,23.75
2023-04-17T12:47:17.939Z,23.75
2023-04-17T12:48:16.977Z,23.81
2023-04-17T12:49:18.022Z,23.76
2023-04-17T12:50:18.092Z,23.75
2023-04-17T12:51:18.186Z,23.75
2023-04-17T12:52:18.224Z,23.82
2023-04-17T12:53:17.271Z,23.76
2023-04-17T12:54:18.336Z,23.81
2023-04-17T12:55:18.375Z,23.78
2023-04-17T12:56:18.436Z,23.79
2023-04-17T12:57:18.469Z,23.84
2023-04-17T12:58:18.509Z,23.88
2023-04-17T12:59:18.554Z,23.88
2023-04-17T13:00:17.596Z,23.82
2023-04-17T13:01:18.678Z,23.82
2023-04-17T13:02:17.752Z,23.81
2023-04-17T13:03:18.972Z,23.88
2023-04-17T13:04:19.226Z,23.79
2023-04-17T13:05:17.837Z,23.86
2023-04-17T13:06:18.900Z,23.85
2023-04-17T13:07:17.940Z,23.88
2023-04-17T13:08:17.995Z,23.84
2023-04-17T13:09:18.085Z,23.85
2023-04-17T13:10:19.115Z,23.86
2023-04-17T13:11:18.154Z,23.88
2023-04-17T13:12:19.207Z,23.86
2023-04-17T13:13:18.256Z,23.86
2023-04-17T13:14:19.300Z,23.81
2023-04-17T13:15:19.374Z,23.85
2023-04-17T13:16:18.502Z,23.88
2023-04-17T13:17:19.511Z,23.85
2023-04-17T13:18:19.501Z,23.85
2023-04-17T13:19:19.555Z,23.82
2023-04-17T13:20:19.578Z,23.89
2023-04-17T13:21:19.637Z,23.86
2023-04-17T13:22:19.692Z,23.88
2023-04-17T13:23:19.709Z,23.91
2023-04-17T13:24:19.797Z,23.89
2023-04-17T13:25:18.839Z,23.91
2023-04-17T13:26:19.909Z,23.88
2023-04-17T13:27:19.978Z,23.89
2023-04-17T13:28:20.045Z,23.88
2023-04-17T13:29:20.307Z,23.91
2023-04-17T13:30:20.147Z,23.92
2023-04-17T13:31:20.242Z,23.92
2023-04-17T13:32:19.285Z,23.96
2023-04-17T13:33:20.359Z,24.01
2023-04-17T13:34:20.438Z,23.99
2023-04-17T13:35:20.456Z,24.03
2023-04-17T13:36:19.580Z,24.03
2023-04-17T13:37:19.572Z,24.03
2023-04-17T13:38:19.648Z,24.02
2023-04-17T13:39:20.692Z,24.01
2023-04-17T13:40:20.752Z,24.05
2023-04-17T13:41:20.828Z,24.06
2023-04-17T13:42:20.879Z,24.02
2023-04-17T13:43:20.924Z,24.03
2023-04-17T13:44:20.976Z,24.02
2023-04-17T13:45:20.028Z,24.03
2023-04-17T13:46:20.118Z,24.05
2023-04-17T13:47:20.154Z,24.02
2023-04-17T13:48:21.195Z,23.99
2023-04-17T13:49:21.274Z,23.96
2023-04-17T13:50:21.323Z,23.96
2023-04-17T13:51:20.364Z,23.96
2023-04-17T13:52:21.426Z,23.96
2023-04-17T13:53:21.498Z,23.98
2023-04-17T13:54:21.556Z,23.92
2023-04-17T13:55:21.606Z,23.89
2023-04-17T13:56:20.677Z,23.92
2023-04-17T13:57:21.750Z,23.92
2023-04-17T13:58:20.815Z,23.89
2023-04-17T13:59:21.838Z,23.93
2023-04-17T14:00:20.918Z,23.91
2023-04-17T14:01:21.981Z,23.91
2023-04-17T14:02:22.144Z,23.91
2023-04-17T14:03:22.143Z,23.93
2023-04-17T14:04:22.339Z,23.89
2023-04-17T14:05:22.240Z,23.95
2023-04-17T14:06:22.245Z,23.93
2023-04-17T14:07:22.292Z,23.95
2023-04-17T14:08:22.358Z,23.93
2023-04-17T14:09:21.406Z,23.98
2023-04-17T14:10:21.459Z,23.99
2023-04-17T14:11:22.515Z,23.98
2023-04-17T14:12:21.593Z,23.98
2023-04-17T14:13:21.623Z,23.88
2023-04-17T14:14:22.680Z,23.91
2023-04-17T14:15:22.735Z,23.88
2023-04-17T14:16:21.811Z,23.85
2023-04-17T14:17:22.862Z,23.91
2023-04-17T14:18:21.871Z,23.91
2023-04-17T14:19:21.916Z,23.93
2023-04-17T14:20:22.997Z,23.93
2023-04-17T14:21:23.141Z,23.89
2023-04-17T14:22:23.117Z,23.95
2023-04-17T14:23:22.173Z,23.93
2023-04-17T14:24:23.224Z,23.93
2023-04-17T14:25:22.285Z,23.93
2023-04-17T14:26:23.312Z,23.96
2023-04-17T14:27:23.370Z,23.93
2023-04-17T14:28:23.411Z,23.91
2023-04-17T14:29:23.470Z,23.85
2023-04-17T14:30:23.508Z,23.81
2023-04-17T14:31:22.615Z,23.81
2023-04-17T14:32:22.649Z,23.79
2023-04-17T14:33:23.680Z,23.81
2023-04-17T14:34:22.722Z,23.78
2023-04-17T14:35:23.804Z,23.81
2023-04-17T14:36:22.805Z,23.75
2023-04-17T14:37:22.911Z,23.75
2023-04-17T14:38:23.914Z,23.74
2023-04-17T14:39:22.928Z,23.74
2023-04-17T14:40:23.953Z,23.72
2023-04-17T14:41:23.041Z,23.75
2023-04-17T14:42:23.028Z,23.71
2023-04-17T14:43:24.073Z,23.72
2023-04-17T14:44:23.078Z,23.68
2023-04-17T14:45:23.130Z,23.68
2023-04-17T14:46:24.143Z,23.68
2023-04-17T14:47:24.213Z,23.67
2023-04-17T14:48:24.175Z,23.67
2023-04-17T14:49:24.208Z,23.64
2023-04-17T14:50:24.211Z,23.64
2023-04-17T14:51:24.278Z,23.61
2023-04-17T14:52:24.296Z,23.62
2023-04-17T14:53:23.537Z,23.62
2023-04-17T14:54:23.383Z,23.67
2023-04-17T14:55:24.450Z,23.65
2023-04-17T14:56:24.491Z,23.64
2023-04-17T14:57:23.481Z,23.65
2023-04-17T14:58:24.478Z,23.65
2023-04-17T14:59:24.476Z,23.64
2023-04-17T15:00:24.483Z,23.64
2023-04-17T15:01:24.536Z,23.64
2023-04-17T15:02:24.602Z,23.62
2023-04-17T15:03:23.682Z,23.65
2023-04-17T15:04:23.590Z,23.62
2023-04-17T15:05:24.521Z,23.62
2023-04-17T15:06:24.472Z,23.62
2023-04-17T15:07:23.470Z,23.58
2023-04-17T15:08:23.468Z,23.62
2023-04-17T15:09:24.571Z,23.62
2023-04-17T15:10:24.455Z,23.64
2023-04-17T15:11:24.462Z,23.65
2023-04-17T15:12:24.470Z,23.64
2023-04-17T15:13:23.463Z,23.62
2023-04-17T15:14:23.468Z,23.64
2023-04-17T15:15:24.470Z,23.67
2023-04-17T15:16:24.498Z,23.62
2023-04-17T15:17:23.473Z,23.65
2023-04-17T15:18:23.449Z,23.65
2023-04-17T15:19:23.453Z,23.67
2023-04-17T15:20:24.445Z,23.65
2023-04-17T15:21:23.514Z,23.58
2023-04-17T15:22:24.495Z,23.62
2023-04-17T15:23:24.522Z,23.64
2023-04-17T15:24:24.530Z,23.62
2023-04-17T15:25:24.600Z,23.64
2023-04-17T15:26:24.526Z,23.60
2023-04-17T15:27:23.560Z,23.60
2023-04-17T15:28:23.599Z,23.58
2023-04-17T15:29:23.546Z,23.62
